Madison, NJ (07940)

7:40 PM EST on March 05, 2015 (GMT -0500)
Madison Community Pool | Change Station
CLOSE
Current Station
Personal Weather Station
Location: Madison, NJ
Elevation: 207 ft
Nearby Weather Stations

Elev 207 ft 40.76 °N, 74.40 °W | Updated 3 minutes ago

Overcast
Overcast
19.6 °F
Feels Like 13 °F
N
4.2
Wind Variable Wind from West

Today
High -- | Low -- °F
--% Chance of Precip.
Yesterday
High -- | Low -- °F
Precip. -- in
6:25 AM 5:53 PM
Full, 100% visible
Pressure 30.28 in
Visibility 7.0 miles
Clouds Scattered Clouds 8500 ft
Overcast 9500 ft
Windchill 13 °F
Dew Point 19 °F
Humidity 98%
Rainfall in
Snow Depth Not available.
UV 0 out of 12
Pollen .60 out of 12
Air Quality Not available.
Flu Activity Not available.
METAR KMMU 052345Z 31005KT 7SM SCT085 OVC095 M06/M11 A3028

More Conditions Fewer Conditions

Pressure 30.28 in
Visibility 7.0 miles
Clouds Scattered Clouds 8500 ft
Overcast 9500 ft
Windchill 13 °F
Dew Point 19 °F
Humidity 98%
Rainfall in
Snow Depth Not available.
UV 0 out of 12
Pollen .60 out of 12
Air Quality Not available.
Flu Activity Not available.
METAR KMMU 052345Z 31005KT 7SM SCT085 OVC095 M06/M11 A3028

More Conditions Fewer Conditions

Nowcast | as of 4:43 PM EST on March 5, 2015

Significant snow has now moved south of the area. While there still may be a few periods of light snow into the evening hours, no additional accumulation is expected. Temperatures will continue to drop, however, and extremely cold conditions for this time of year are expected for the overnight hours. Be careful when shoveling this heavy wet snow.

×

10-Day Weather Forecast

Almanac

Astronomy

Mar. 05, 2015 Rise Set
Actual Time
Civil Twilight
Nautical Twilight
Astronomical Twilight
Moon
Length of Visible Light
Length of Day
Tomorrow will be .
, % of the Moon is Illuminated

Today's Extremes

State Highs State Lows

Community

WunderPhotos

Upload Photos

1,803,076 photos uploaded!

WunderBlogs® & News

Nearby

Air Quality

  Air Quality AQ Index Pollutant
Not available.

Snow Depth

Station Depth Elevation

Earthquake Activity

City Distance Mag. Time & Date
Minimum magnitude displayed is 2.5.

Coastal Water Temperatures

Place Temperature

Nearby Weather Stations